sensor_id;sensor_type;location;lat;lon;timestamp;pressure;altitude;pressure_sealevel;temperature;humidity
54876;BME280;40764;48.472;8.166;2023-02-22T00:05:37;98114.28;;;3.43;95.82
54876;BME280;40764;48.472;8.166;2023-02-22T00:11:44;98121.19;;;3.34;96.29
54876;BME280;40764;48.472;8.166;2023-02-22T00:17:45;98113.84;;;3.29;96.00
54876;BME280;40764;48.472;8.166;2023-02-22T00:23:47;98114.63;;;3.08;96.41
54876;BME280;40764;48.472;8.166;2023-02-22T00:29:48;98108.59;;;3.01;96.72
54876;BME280;40764;48.472;8.166;2023-02-22T00:35:48;98112.81;;;3.14;96.46
54876;BME280;40764;48.472;8.166;2023-02-22T00:41:49;98100.44;;;3.18;96.13
54876;BME280;40764;48.472;8.166;2023-02-22T00:47:50;98113.13;;;3.17;95.91
54876;BME280;40764;48.472;8.166;2023-02-22T00:53:51;98103.59;;;3.09;96.01
54876;BME280;40764;48.472;8.166;2023-02-22T00:59:51;98105.97;;;3.06;96.01
54876;BME280;40764;48.472;8.166;2023-02-22T01:05:51;98092.59;;;2.94;96.65
54876;BME280;40764;48.472;8.166;2023-02-22T01:11:53;98088.50;;;2.92;97.14
54876;BME280;40764;48.472;8.166;2023-02-22T01:17:57;98082.34;;;2.96;96.39
54876;BME280;40764;48.472;8.166;2023-02-22T01:23:58;98081.72;;;2.89;96.55
54876;BME280;40764;48.472;8.166;2023-02-22T01:29:59;98066.50;;;2.83;96.53
54876;BME280;40764;48.472;8.166;2023-02-22T01:35:59;98068.34;;;2.99;96.33
54876;BME280;40764;48.472;8.166;2023-02-22T01:41:59;98053.19;;;2.76;96.19
54876;BME280;40764;48.472;8.166;2023-02-22T01:54:42;98050.41;;;2.71;97.38
54876;BME280;40764;48.472;8.166;2023-02-22T02:00:41;98036.97;;;2.76;96.97
54876;BME280;40764;48.472;8.166;2023-02-22T02:06:44;98037.66;;;2.89;96.97
54876;BME280;40764;48.472;8.166;2023-02-22T02:12:48;98029.25;;;2.85;96.75
54876;BME280;40764;48.472;8.166;2023-02-22T02:18:49;98021.72;;;2.87;96.45
54876;BME280;40764;48.472;8.166;2023-02-22T02:25:12;98018.97;;;2.82;96.92
54876;BME280;40764;48.472;8.166;2023-02-22T02:43:49;98013.19;;;2.73;97.16
54876;BME280;40764;48.472;8.166;2023-02-22T02:50:09;98012.06;;;2.69;97.58
54876;BME280;40764;48.472;8.166;2023-02-22T02:56:11;98005.34;;;2.72;97.06
54876;BME280;40764;48.472;8.166;2023-02-22T03:08:45;97992.34;;;2.69;98.15
54876;BME280;40764;48.472;8.166;2023-02-22T03:15:04;97995.59;;;2.71;98.00
54876;BME280;40764;48.472;8.166;2023-02-22T03:21:24;97998.19;;;2.61;98.07
54876;BME280;40764;48.472;8.166;2023-02-22T03:27:32;97989.34;;;2.48;98.20
54876;BME280;40764;48.472;8.166;2023-02-22T03:33:39;97981.25;;;2.48;98.68
54876;BME280;40764;48.472;8.166;2023-02-22T03:39:42;97979.75;;;2.58;98.66
54876;BME280;40764;48.472;8.166;2023-02-22T03:45:44;97974.28;;;2.53;98.35
54876;BME280;40764;48.472;8.166;2023-02-22T03:51:46;97976.25;;;2.57;98.95
54876;BME280;40764;48.472;8.166;2023-02-22T03:57:49;97964.50;;;2.46;98.51
54876;BME280;40764;48.472;8.166;2023-02-22T04:03:50;97971.22;;;2.44;98.83
54876;BME280;40764;48.472;8.166;2023-02-22T04:09:51;97962.50;;;2.37;98.33
54876;BME280;40764;48.472;8.166;2023-02-22T04:15:51;97969.53;;;2.38;98.81
54876;BME280;40764;48.472;8.166;2023-02-22T04:21:52;97968.22;;;2.40;98.91
54876;BME280;40764;48.472;8.166;2023-02-22T04:27:52;97967.06;;;2.36;98.22
54876;BME280;40764;48.472;8.166;2023-02-22T04:33:52;97965.44;;;2.35;98.72
54876;BME280;40764;48.472;8.166;2023-02-22T04:39:53;97962.63;;;2.30;98.81
54876;BME280;40764;48.472;8.166;2023-02-22T04:45:53;97953.97;;;2.28;99.22
54876;BME280;40764;48.472;8.166;2023-02-22T04:51:53;97955.09;;;2.10;98.61
54876;BME280;40764;48.472;8.166;2023-02-22T04:57:55;97957.72;;;2.05;98.79
54876;BME280;40764;48.472;8.166;2023-02-22T05:03:55;97954.59;;;2.13;99.42
54876;BME280;40764;48.472;8.166;2023-02-22T05:09:56;97961.94;;;2.35;99.10
54876;BME280;40764;48.472;8.166;2023-02-22T05:15:56;97955.63;;;2.29;98.70
54876;BME280;40764;48.472;8.166;2023-02-22T05:21:56;97951.47;;;2.22;99.32
54876;BME280;40764;48.472;8.166;2023-02-22T05:28:00;97949.50;;;2.34;99.23
54876;BME280;40764;48.472;8.166;2023-02-22T05:34:02;97942.88;;;2.25;98.52
54876;BME280;40764;48.472;8.166;2023-02-22T05:40:02;97944.25;;;2.27;99.30
54876;BME280;40764;48.472;8.166;2023-02-22T05:46:03;97942.47;;;2.33;99.13
54876;BME280;40764;48.472;8.166;2023-02-22T05:52:04;97942.31;;;2.23;98.88
54876;BME280;40764;48.472;8.166;2023-02-22T05:58:04;97947.69;;;2.23;98.54
54876;BME280;40764;48.472;8.166;2023-02-22T06:04:04;97946.47;;;2.30;98.43
54876;BME280;40764;48.472;8.166;2023-02-22T06:10:05;97947.53;;;2.29;98.23
54876;BME280;40764;48.472;8.166;2023-02-22T06:16:06;97947.06;;;2.32;99.02
54876;BME280;40764;48.472;8.166;2023-02-22T06:22:10;97951.38;;;2.33;98.72
54876;BME280;40764;48.472;8.166;2023-02-22T06:28:14;97951.78;;;2.25;99.38
54876;BME280;40764;48.472;8.166;2023-02-22T06:34:15;97964.13;;;2.38;99.00
54876;BME280;40764;48.472;8.166;2023-02-22T06:40:15;97963.88;;;2.23;99.07
54876;BME280;40764;48.472;8.166;2023-02-22T06:46:16;97963.69;;;2.46;99.05
54876;BME280;40764;48.472;8.166;2023-02-22T06:52:16;97980.75;;;2.52;98.22
54876;BME280;40764;48.472;8.166;2023-02-22T06:58:16;97984.97;;;2.42;99.00
54876;BME280;40764;48.472;8.166;2023-02-22T07:04:17;97990.81;;;2.56;98.31
54876;BME280;40764;48.472;8.166;2023-02-22T07:10:24;97985.72;;;2.60;98.37
54876;BME280;40764;48.472;8.166;2023-02-22T07:16:24;97994.22;;;2.68;98.38
54876;BME280;40764;48.472;8.166;2023-02-22T07:22:24;98000.38;;;2.64;98.38
54876;BME280;40764;48.472;8.166;2023-02-22T07:28:25;98002.34;;;2.90;98.44
54876;BME280;40764;48.472;8.166;2023-02-22T07:34:25;98002.56;;;2.89;97.79
54876;BME280;40764;48.472;8.166;2023-02-22T07:40:26;97999.78;;;3.00;98.26
54876;BME280;40764;48.472;8.166;2023-02-22T07:46:26;97994.28;;;3.17;97.84
54876;BME280;40764;48.472;8.166;2023-02-22T07:52:26;97989.94;;;3.38;97.10
54876;BME280;40764;48.472;8.166;2023-02-22T07:58:29;97987.34;;;3.48;97.37
54876;BME280;40764;48.472;8.166;2023-02-22T08:04:29;97993.19;;;3.67;97.20
54876;BME280;40764;48.472;8.166;2023-02-22T08:10:30;97991.50;;;3.88;97.13
54876;BME280;40764;48.472;8.166;2023-02-22T08:16:30;97985.78;;;4.16;96.56
54876;BME280;40764;48.472;8.166;2023-02-22T08:22:30;97984.94;;;4.48;96.27
54876;BME280;40764;48.472;8.166;2023-02-22T08:28:31;97978.28;;;4.65;95.80
54876;BME280;40764;48.472;8.166;2023-02-22T08:34:31;97974.03;;;4.90;95.84
54876;BME280;40764;48.472;8.166;2023-02-22T08:40:35;97966.53;;;5.02;97.01
54876;BME280;40764;48.472;8.166;2023-02-22T08:46:36;97972.59;;;5.29;95.94
54876;BME280;40764;48.472;8.166;2023-02-22T08:52:36;97974.28;;;5.61;95.42
54876;BME280;40764;48.472;8.166;2023-02-22T08:58:36;97966.41;;;5.75;94.88
54876;BME280;40764;48.472;8.166;2023-02-22T09:04:37;97962.94;;;6.05;94.79
54876;BME280;40764;48.472;8.166;2023-02-22T09:10:37;97967.28;;;6.36;93.81
54876;BME280;40764;48.472;8.166;2023-02-22T09:16:37;97956.88;;;6.74;93.09
54876;BME280;40764;48.472;8.166;2023-02-22T09:22:38;97963.28;;;7.08;91.78
54876;BME280;40764;48.472;8.166;2023-02-22T09:28:39;97957.13;;;7.42;90.87
54876;BME280;40764;48.472;8.166;2023-02-22T09:34:39;97954.97;;;7.83;89.94
54876;BME280;40764;48.472;8.166;2023-02-22T09:40:49;97948.31;;;8.28;88.27
54876;BME280;40764;48.472;8.166;2023-02-22T09:46:50;97938.19;;;8.68;88.09
54876;BME280;40764;48.472;8.166;2023-02-22T09:52:58;97937.56;;;8.95;84.34
54876;BME280;40764;48.472;8.166;2023-02-22T09:59:05;97930.72;;;9.40;83.18
54876;BME280;40764;48.472;8.166;2023-02-22T10:05:17;97931.69;;;9.68;80.08
54876;BME280;40764;48.472;8.166;2023-02-22T10:17:52;97921.22;;;10.27;79.79
54876;BME280;40764;48.472;8.166;2023-02-22T10:30:25;97915.31;;;10.79;78.47
54876;BME280;40764;48.472;8.166;2023-02-22T10:36:45;97904.78;;;10.86;77.47
54876;BME280;40764;48.472;8.166;2023-02-22T10:42:47;97892.00;;;11.09;76.00
54876;BME280;40764;48.472;8.166;2023-02-22T10:48:51;97881.50;;;11.39;73.45
54876;BME280;40764;48.472;8.166;2023-02-22T10:54:56;97891.56;;;11.66;73.08
54876;BME280;40764;48.472;8.166;2023-02-22T11:00:57;97890.00;;;11.87;72.06
54876;BME280;40764;48.472;8.166;2023-02-22T11:12:58;97865.34;;;12.40;68.46
54876;BME280;40764;48.472;8.166;2023-02-22T11:19:06;97866.97;;;12.81;65.08
54876;BME280;40764;48.472;8.166;2023-02-22T11:25:17;97855.78;;;13.26;63.47
54876;BME280;40764;48.472;8.166;2023-02-22T11:31:22;97850.81;;;13.37;62.47
54876;BME280;40764;48.472;8.166;2023-02-22T11:37:32;97850.97;;;13.49;61.35
54876;BME280;40764;48.472;8.166;2023-02-22T11:43:34;97843.53;;;13.58;60.51
54876;BME280;40764;48.472;8.166;2023-02-22T11:49:37;97839.38;;;13.60;61.99
54876;BME280;40764;48.472;8.166;2023-02-22T12:02:17;97842.09;;;13.60;63.47
54876;BME280;40764;48.472;8.166;2023-02-22T12:21:02;97833.44;;;14.22;61.73
54876;BME280;40764;48.472;8.166;2023-02-22T12:27:10;97831.22;;;14.63;60.36
54876;BME280;40764;48.472;8.166;2023-02-22T12:33:17;97820.41;;;14.57;61.15
54876;BME280;40764;48.472;8.166;2023-02-22T12:39:52;97828.00;;;14.61;62.06
54876;BME280;40764;48.472;8.166;2023-02-22T12:52:14;97818.19;;;14.51;62.75
54876;BME280;40764;48.472;8.166;2023-02-22T13:04:31;97817.19;;;14.55;61.67
54876;BME280;40764;48.472;8.166;2023-02-22T13:11:11;97829.50;;;14.41;60.83
54876;BME280;40764;48.472;8.166;2023-02-22T13:17:26;97831.09;;;14.42;61.24
54876;BME280;40764;48.472;8.166;2023-02-22T13:29:41;97831.56;;;14.61;62.52
54876;BME280;40764;48.472;8.166;2023-02-22T13:42:24;97833.44;;;14.69;61.78
54876;BME280;40764;48.472;8.166;2023-02-22T13:55:27;97822.81;;;14.59;61.66
54876;BME280;40764;48.472;8.166;2023-02-22T14:01:47;97818.56;;;14.70;61.82
54876;BME280;40764;48.472;8.166;2023-02-22T14:07:51;97817.28;;;14.68;62.18
54876;BME280;40764;48.472;8.166;2023-02-22T14:26:33;97824.91;;;14.62;61.86
54876;BME280;40764;48.472;8.166;2023-02-22T14:32:34;97823.69;;;14.34;62.33
54876;BME280;40764;48.472;8.166;2023-02-22T14:38:35;97818.81;;;14.39;62.22
54876;BME280;40764;48.472;8.166;2023-02-22T14:44:53;97823.72;;;14.25;62.45
54876;BME280;40764;48.472;8.166;2023-02-22T14:50:58;97818.78;;;14.01;63.52
54876;BME280;40764;48.472;8.166;2023-02-22T15:03:52;97811.84;;;13.95;63.38
54876;BME280;40764;48.472;8.166;2023-02-22T15:10:18;97816.72;;;13.89;62.99
54876;BME280;40764;48.472;8.166;2023-02-22T15:16:20;97813.78;;;13.86;63.09
54876;BME280;40764;48.472;8.166;2023-02-22T15:22:26;97825.28;;;13.71;63.61
54876;BME280;40764;48.472;8.166;2023-02-22T15:28:29;97823.38;;;13.62;63.59
54876;BME280;40764;48.472;8.166;2023-02-22T15:34:31;97828.19;;;13.48;64.37
54876;BME280;40764;48.472;8.166;2023-02-22T15:40:33;97833.22;;;13.38;65.05
54876;BME280;40764;48.472;8.166;2023-02-22T15:46:33;97833.19;;;13.20;65.68
54876;BME280;40764;48.472;8.166;2023-02-22T15:52:34;97847.63;;;12.95;66.60
54876;BME280;40764;48.472;8.166;2023-02-22T15:58:35;97842.13;;;12.86;66.91
54876;BME280;40764;48.472;8.166;2023-02-22T16:04:36;97850.97;;;12.75;67.43
54876;BME280;40764;48.472;8.166;2023-02-22T16:10:36;97848.19;;;12.66;68.06
54876;BME280;40764;48.472;8.166;2023-02-22T16:16:37;97851.41;;;12.59;68.30
54876;BME280;40764;48.472;8.166;2023-02-22T16:22:45;97849.09;;;12.44;69.61
54876;BME280;40764;48.472;8.166;2023-02-22T16:34:53;97852.00;;;12.17;70.92
54876;BME280;40764;48.472;8.166;2023-02-22T16:40:55;97856.44;;;12.04;72.38
54876;BME280;40764;48.472;8.166;2023-02-22T16:46:58;97865.78;;;11.81;74.18
54876;BME280;40764;48.472;8.166;2023-02-22T16:52:59;97864.72;;;11.54;75.36
54876;BME280;40764;48.472;8.166;2023-02-22T16:59:02;97859.56;;;11.30;76.87
54876;BME280;40764;48.472;8.166;2023-02-22T17:05:06;97874.75;;;11.23;77.51
54876;BME280;40764;48.472;8.166;2023-02-22T17:11:09;97878.84;;;11.11;78.49
54876;BME280;40764;48.472;8.166;2023-02-22T17:17:15;97887.16;;;11.06;79.23
54876;BME280;40764;48.472;8.166;2023-02-22T17:23:17;97889.50;;;10.99;79.52
54876;BME280;40764;48.472;8.166;2023-02-22T17:29:18;97891.13;;;10.86;80.56
54876;BME280;40764;48.472;8.166;2023-02-22T17:35:19;97898.63;;;10.81;81.02
54876;BME280;40764;48.472;8.166;2023-02-22T17:41:22;97893.53;;;10.61;82.09
54876;BME280;40764;48.472;8.166;2023-02-22T17:47:22;97896.06;;;10.57;82.43
54876;BME280;40764;48.472;8.166;2023-02-22T17:53:22;97902.53;;;10.61;82.65
54876;BME280;40764;48.472;8.166;2023-02-22T17:59:26;97902.13;;;10.54;83.09
54876;BME280;40764;48.472;8.166;2023-02-22T18:05:27;97911.66;;;10.43;84.14
54876;BME280;40764;48.472;8.166;2023-02-22T18:11:28;97903.06;;;10.17;85.01
54876;BME280;40764;48.472;8.166;2023-02-22T18:17:32;97908.22;;;10.18;85.44
54876;BME280;40764;48.472;8.166;2023-02-22T18:23:33;97896.72;;;10.03;85.90
54876;BME280;40764;48.472;8.166;2023-02-22T18:29:33;97895.13;;;10.02;86.90
54876;BME280;40764;48.472;8.166;2023-02-22T18:35:33;97897.16;;;10.10;86.71
54876;BME280;40764;48.472;8.166;2023-02-22T18:41:34;97893.78;;;9.99;86.59
54876;BME280;40764;48.472;8.166;2023-02-22T18:47:42;97894.50;;;10.05;87.20
54876;BME280;40764;48.472;8.166;2023-02-22T18:53:43;97887.44;;;10.04;86.94
54876;BME280;40764;48.472;8.166;2023-02-22T18:59:47;97894.47;;;9.91;88.09
54876;BME280;40764;48.472;8.166;2023-02-22T19:05:47;97889.56;;;9.74;88.86
54876;BME280;40764;48.472;8.166;2023-02-22T19:11:49;97887.34;;;9.76;89.12
54876;BME280;40764;48.472;8.166;2023-02-22T19:17:49;97890.44;;;9.88;88.97
54876;BME280;40764;48.472;8.166;2023-02-22T19:23:50;97892.66;;;9.86;88.82
54876;BME280;40764;48.472;8.166;2023-02-22T19:29:50;97889.91;;;9.86;89.32
54876;BME280;40764;48.472;8.166;2023-02-22T19:35:58;97889.84;;;9.73;90.30
54876;BME280;40764;48.472;8.166;2023-02-22T19:41:59;97882.47;;;9.73;91.20
54876;BME280;40764;48.472;8.166;2023-02-22T19:47:59;97881.78;;;9.81;91.44
54876;BME280;40764;48.472;8.166;2023-02-22T19:54:10;97880.16;;;9.80;92.52
54876;BME280;40764;48.472;8.166;2023-02-22T20:00:27;97884.97;;;9.88;92.26
54876;BME280;40764;48.472;8.166;2023-02-22T20:06:44;97884.28;;;9.97;92.05
54876;BME280;40764;48.472;8.166;2023-02-22T20:12:47;97886.69;;;9.84;92.23
54876;BME280;40764;48.472;8.166;2023-02-22T20:18:48;97895.22;;;9.78;92.66
54876;BME280;40764;48.472;8.166;2023-02-22T20:24:49;97901.56;;;9.73;94.52
54876;BME280;40764;48.472;8.166;2023-02-22T20:30:51;97899.03;;;9.63;94.78
54876;BME280;40764;48.472;8.166;2023-02-22T20:36:52;97891.63;;;9.63;95.81
54876;BME280;40764;48.472;8.166;2023-02-22T20:42:53;97893.25;;;9.65;96.08
54876;BME280;40764;48.472;8.166;2023-02-22T20:48:56;97894.88;;;9.47;96.59
54876;BME280;40764;48.472;8.166;2023-02-22T20:54:57;97906.22;;;9.54;98.43
54876;BME280;40764;48.472;8.166;2023-02-22T21:01:08;97909.25;;;9.52;97.91
54876;BME280;40764;48.472;8.166;2023-02-22T21:07:11;97904.69;;;9.48;98.32
54876;BME280;40764;48.472;8.166;2023-02-22T21:13:11;97907.00;;;9.59;97.99
54876;BME280;40764;48.472;8.166;2023-02-22T21:19:13;97895.69;;;9.47;98.81
54876;BME280;40764;48.472;8.166;2023-02-22T21:25:22;97898.34;;;9.52;100.00
54876;BME280;40764;48.472;8.166;2023-02-22T21:31:30;97898.41;;;9.47;100.00
54876;BME280;40764;48.472;8.166;2023-02-22T21:37:40;97899.53;;;9.46;100.00
54876;BME280;40764;48.472;8.166;2023-02-22T21:49:49;97892.97;;;9.47;100.00
54876;BME280;40764;48.472;8.166;2023-02-22T21:55:50;97889.28;;;9.57;100.00
54876;BME280;40764;48.472;8.166;2023-02-22T22:01:54;97891.44;;;9.60;100.00
54876;BME280;40764;48.472;8.166;2023-02-22T22:07:54;97887.00;;;9.45;100.00
54876;BME280;40764;48.472;8.166;2023-02-22T22:13:55;97879.69;;;9.41;100.00
54876;BME280;40764;48.472;8.166;2023-02-22T22:19:59;97876.66;;;9.23;100.00
54876;BME280;40764;48.472;8.166;2023-02-22T22:26:00;97879.63;;;9.46;100.00
54876;BME280;40764;48.472;8.166;2023-02-22T22:32:01;97878.16;;;9.35;100.00
54876;BME280;40764;48.472;8.166;2023-02-22T22:38:02;97881.09;;;9.38;100.00
54876;BME280;40764;48.472;8.166;2023-02-22T22:44:02;97874.22;;;9.22;100.00
54876;BME280;40764;48.472;8.166;2023-02-22T22:50:06;97877.34;;;9.34;100.00
54876;BME280;40764;48.472;8.166;2023-02-22T22:56:12;97871.50;;;9.41;100.00
54876;BME280;40764;48.472;8.166;2023-02-22T23:02:16;97859.97;;;9.30;100.00
54876;BME280;40764;48.472;8.166;2023-02-22T23:08:19;97864.94;;;9.23;100.00
54876;BME280;40764;48.472;8.166;2023-02-22T23:14:28;97869.97;;;9.35;100.00
54876;BME280;40764;48.472;8.166;2023-02-22T23:20:32;97870.47;;;9.18;100.00
54876;BME280;40764;48.472;8.166;2023-02-22T23:26:39;97862.28;;;9.18;100.00
54876;BME280;40764;48.472;8.166;2023-02-22T23:32:44;97860.00;;;9.06;100.00
54876;BME280;40764;48.472;8.166;2023-02-22T23:38:46;97863.19;;;9.13;100.00
54876;BME280;40764;48.472;8.166;2023-02-22T23:44:46;97857.88;;;9.22;100.00
54876;BME280;40764;48.472;8.166;2023-02-22T23:51:08;97869.97;;;9.35;100.00
54876;BME280;40764;48.472;8.166;2023-02-22T23:57:11;97862.50;;;9.21;100.00
